Time;durP1;ratioP1;P1;durP2;ratioP2;P2;SDS_P1;SDS_P2;PMS_P1;PMS_P2;Temp;Humidity;BMP_temperature;BMP_pressure;BME280_temperature;BME280_humidity;BME280_pressure;Samples;Min_cycle;Max_cycle;Signal;HPM_P1;HPM_P2
2023/10/02 07:01:26;;;;;;;;;;;;;;;14.74;100.00;100560.18;1826213;78;20154;-69
2023/10/02 07:03:52;;;;;;;;;;;;;;;14.85;100.00;100566.85;1830196;77;20179;-71
2023/10/02 07:06:19;;;;;;;;;;;;;;;14.93;100.00;100566.73;1810135;79;20095;-71
2023/10/02 07:09:09;;;;;;;;;;;;;;;15.04;100.00;100575.20;1812175;78;20150;-73
2023/10/02 07:11:18;;;;;;;;;;;;;;;15.18;100.00;100569.05;1820609;78;20136;-70
2023/10/02 07:13:51;;;;;;;;;;;;;;;15.30;100.00;100572.14;1816401;77;20384;-71
2023/10/02 07:16:18;;;;;;;;;;;;;;;15.40;100.00;100562.72;1804463;78;20515;-71
2023/10/02 07:18:49;;;;;;;;;;;;;;;15.54;100.00;100568.35;1812985;79;20095;-73
2023/10/02 07:21:21;;;;;;;;;;;;;;;15.62;100.00;100566.05;1815225;79;20172;-71
2023/10/02 07:23:47;;;;;;;;;;;;;;;15.66;100.00;100563.58;1820552;79;20143;-72
2023/10/02 07:26:19;;;;;;;;;;;;;;;15.74;100.00;100572.25;1820605;78;20410;-71
2023/10/02 07:28:52;;;;;;;;;;;;;;;15.83;100.00;100565.89;1820986;78;20532;-72
2023/10/02 07:31:19;;;;;;;;;;;;;;;15.98;100.00;100570.56;1819960;79;20151;-72
2023/10/02 07:33:45;;;;;;;;;;;;;;;16.12;100.00;100570.89;1819849;79;20489;-71
2023/10/02 07:36:15;;;;;;;;;;;;;;;16.23;100.00;100576.23;1841772;78;20358;-71
2023/10/02 07:38:42;;;;;;;;;;;;;;;16.37;100.00;100577.41;1849348;78;20099;-71
2023/10/02 07:41:23;;;;;;;;;;;;;;;16.51;100.00;100572.45;1840400;78;20108;-73
2023/10/02 07:43:52;;;;;;;;;;;;;;;16.57;100.00;100574.64;1850108;78;20126;-72
2023/10/02 07:46:21;;;;;;;;;;;;;;;16.58;100.00;100575.84;1850825;78;20084;-70
2023/10/02 07:48:57;;;;;;;;;;;;;;;16.66;100.00;100571.38;1850584;78;20408;-72
2023/10/02 07:51:30;;;;;;;;;;;;;;;16.72;100.00;100572.26;1850774;78;20158;-74
2023/10/02 07:53:56;;;;;;;;;;;;;;;16.81;100.00;100586.02;1847164;78;20122;-71
2023/10/02 08:27:07;;;;;;;;;;;;;;;18.55;100.00;100598.97;1832002;77;20098;-72
2023/10/02 08:29:34;;;;;;;;;;;;;;;18.59;100.00;100590.69;1844034;77;20172;-69
2023/10/02 08:32:11;;;;;;;;;;;;;;;18.56;100.00;100592.73;1830772;77;20161;-72
2023/10/02 08:34:37;;;;;;;;;;;;;;;18.50;100.00;100595.38;1826304;77;20157;-71
2023/10/02 08:37:07;;;;;;;;;;;;;;;18.57;100.00;100594.41;1848389;77;20108;-70
2023/10/02 08:39:35;;;;;;;;;;;;;;;18.66;100.00;100593.70;1862056;77;20159;-74
2023/10/02 08:42:09;;;;;;;;;;;;;;;18.65;100.00;100594.19;1833909;77;20380;-73
2023/10/02 08:44:42;;;;;;;;;;;;;;;18.65;100.00;100592.87;1859026;77;20166;-70
2023/10/02 08:47:24;;;;;;;;;;;;;;;18.66;100.00;100596.34;1847817;77;20091;-70
2023/10/02 08:49:47;;;;;;;;;;;;;;;18.64;100.00;100596.95;1843003;77;20144;-72
2023/10/02 08:52:11;;;;;;;;;;;;;;;18.54;99.68;100593.33;1835859;77;20107;-71
2023/10/02 08:54:41;;;;;;;;;;;;;;;18.42;100.00;100597.78;1836358;77;20392;-70
2023/10/02 08:57:18;;;;;;;;;;;;;;;18.36;100.00;100604.89;1842803;77;20146;-71
2023/10/02 08:59:55;;;;;;;;;;;;;;;18.32;99.91;100596.86;1841872;77;20208;-71
2023/10/02 09:02:16;;;;;;;;;;;;;;;18.31;100.00;100599.14;1825546;78;20152;-71
2023/10/02 09:04:53;;;;;;;;;;;;;;;18.33;99.89;100601.18;1827201;78;20149;-70
2023/10/02 09:08:00;;;;;;;;;;;;;;;18.36;100.00;100605.38;1795436;78;20152;-72
2023/10/02 09:10:28;;;;;;;;;;;;;;;18.40;99.88;100608.93;1825106;77;20133;-72
2023/10/02 09:13:14;;;;;;;;;;;;;;;18.46;98.95;100603.66;1841803;77;20170;-71
2023/10/02 09:15:53;;;;;;;;;;;;;;;18.44;98.15;100610.37;1799229;79;20202;-72
2023/10/02 09:19:07;;;;;;;;;;;;;;;18.33;96.75;100605.13;1776583;80;20096;-72
2023/10/02 09:21:14;;;;;;;;;;;;;;;18.21;96.33;100608.25;1776632;80;20135;-71
2023/10/02 09:23:49;;;;;;;;;;;;;;;18.08;96.03;100611.48;1776308;80;20139;-69
2023/10/02 09:26:16;;;;;;;;;;;;;;;17.93;96.66;100612.22;1801180;79;20102;-71
2023/10/02 09:28:58;;;;;;;;;;;;;;;17.85;96.98;100608.02;1815552;79;20172;-68
2023/10/02 09:31:17;;;;;;;;;;;;;;;17.77;97.50;100607.76;1772486;80;20183;-70
2023/10/02 09:33:46;;;;;;;;;;;;;;;17.68;97.91;100621.62;1799444;79;20097;-70
2023/10/02 09:36:19;;;;;;;;;;;;;;;17.57;98.28;100613.70;1810297;79;20119;-69
2023/10/02 09:38:42;;;;;;;;;;;;;;;17.51;98.98;100608.89;1784375;79;20113;-70
2023/10/02 09:41:15;;;;;;;;;;;;;;;17.51;99.49;100609.73;1797752;79;20419;-72
2023/10/02 09:43:49;;;;;;;;;;;;;;;17.54;99.31;100613.45;1797984;79;20125;-73
2023/10/02 09:46:22;;;;;;;;;;;;;;;17.57;99.58;100601.84;1752299;80;20136;-68
2023/10/02 10:13:46;;;;;;;;;;;;;;;17.20;95.18;100611.66;1758125;80;20100;-68
2023/10/02 11:06:23;;;;;;;;;;;;;;;17.34;90.44;100605.73;1813624;79;20098;-73
2023/10/02 11:09:11;;;;;;;;;;;;;;;17.55;90.48;100603.76;1799820;79;20136;-70
2023/10/02 11:11:48;;;;;;;;;;;;;;;17.73;89.64;100599.73;1774189;80;20098;-72
2023/10/02 11:24:51;;;;;;;;;;;;;;;17.90;82.89;100595.80;1771187;80;20233;-69
2023/10/02 11:27:24;;;;;;;;;;;;;;;17.89;82.89;100596.77;1771851;80;20159;-68
2023/10/02 11:30:01;;;;;;;;;;;;;;;17.89;82.58;100597.59;1771159;80;20461;-71
2023/10/02 11:32:54;;;;;;;;;;;;;;;17.85;81.87;100600.11;1811318;79;20195;-70
2023/10/02 11:35:21;;;;;;;;;;;;;;;17.82;81.20;100602.98;1802621;79;20296;-71
2023/10/02 11:37:48;;;;;;;;;;;;;;;17.85;81.71;100601.91;1785284;80;20164;-70
2023/10/02 11:40:16;;;;;;;;;;;;;;;17.92;81.43;100593.89;1777100;79;20562;-68
2023/10/02 11:42:42;;;;;;;;;;;;;;;18.02;81.18;100596.63;1792387;79;20465;-69
2023/10/02 11:45:18;;;;;;;;;;;;;;;18.09;80.26;100603.09;1783005;80;20104;-71
2023/10/02 11:47:46;;;;;;;;;;;;;;;18.11;80.00;100594.11;1785438;79;20187;-70
2023/10/02 11:50:13;;;;;;;;;;;;;;;18.14;79.68;100595.67;1769798;80;20102;-70
2023/10/02 11:52:41;;;;;;;;;;;;;;;18.17;79.79;100602.02;1786986;79;20091;-69
2023/10/02 11:55:09;;;;;;;;;;;;;;;18.19;79.91;100596.98;1788911;79;20396;-68
2023/10/02 11:57:37;;;;;;;;;;;;;;;18.24;79.17;100596.63;1778559;80;20151;-69
2023/10/02 12:00:08;;;;;;;;;;;;;;;18.27;78.23;100601.18;1771865;80;20388;-69
2023/10/02 12:02:36;;;;;;;;;;;;;;;18.26;76.56;100599.98;1784073;79;20240;-71
2023/10/02 12:22:52;;;;;;;;;;;;;;;17.89;75.37;100609.94;1797473;79;20094;-70
2023/10/02 12:25:21;;;;;;;;;;;;;;;17.90;75.51;100604.55;1802471;79;20102;-72
2023/10/02 12:27:49;;;;;;;;;;;;;;;17.93;76.03;100601.67;1804259;79;20181;-72
2023/10/02 13:10:48;;;;;;;;;;;;;;;17.58;73.25;100612.27;1767252;79;20107;-70
2023/10/02 13:13:15;;;;;;;;;;;;;;;17.57;73.47;100611.91;1793294;79;20387;-72
2023/10/02 13:15:44;;;;;;;;;;;;;;;17.56;73.39;100604.96;1785135;79;20169;-77
2023/10/02 13:18:12;;;;;;;;;;;;;;;17.59;74.15;100606.02;1804329;79;20127;-72
2023/10/02 13:20:39;;;;;;;;;;;;;;;17.64;74.40;100616.20;1806281;79;20151;-71
2023/10/02 13:23:06;;;;;;;;;;;;;;;17.70;74.14;100617.08;1810925;79;20105;-70
2023/10/02 13:25:34;;;;;;;;;;;;;;;17.77;73.83;100612.19;1796056;79;20138;-69
2023/10/02 13:28:04;;;;;;;;;;;;;;;17.82;73.90;100616.63;1761650;81;20243;-72
2023/10/02 13:30:33;;;;;;;;;;;;;;;17.87;73.81;100620.59;1758555;81;20141;-71
2023/10/02 13:33:04;;;;;;;;;;;;;;;17.91;73.78;100612.81;1752578;80;20205;-70
2023/10/02 13:35:33;;;;;;;;;;;;;;;17.95;73.70;100620.00;1762327;80;20135;-71
2023/10/02 13:38:00;;;;;;;;;;;;;;;17.98;73.65;100620.61;1771013;81;20125;-74
2023/10/02 13:40:31;;;;;;;;;;;;;;;18.01;73.82;100623.45;1763019;80;20109;-70
